Arab, Alabama
Current Conditions -  °F | °C
As of 10:35 AM on Saturday 25 Oct 2014 (Local Time) from K8A0 Reporting Station
Clear Clear  
Wind Chill: 18°   Ceiling: Unl
Heat Index: 18°   Visibility: 10mi
Dew Point: 13°   Wind: 6mph
Humidity: 73%   Direction: 350°N
Pressure: 30.12"   Gusts: NA
Location:  34.32°N, 86.49°W
Report Text: K8A0 251535Z AUTO 35005KT 10SM CLR 18/13 A3012 RMK AO2
Loading
Personal Weather Stations






























Interactive Weather Map
Tropical Storm Tracking
New forecast layout! Learn more

10-Day Weather Forecast

Advertisements
Track Severe Weather on mobile